D/T METAR WX W/DIR W/SPE G/SPE TEMP DEWP
23/03/19 11:50 EGHH 231150Z 05010KT 7000 FEW005 SCT012 BKN025 11/09 Q1032 NE (50°) 11.5mph 11°C 9°C
23/03/19 11:20 EGHH 231120Z 04008KT 5000 BR FEW005 SCT018 BKN025 10/10 Q1032 BR NE (40°) 9.2mph 10°C 10°C
23/03/19 10:20 EGHH 231020Z 03010KT 9999 SCT015 BKN019 11/08 Q1032 NNE (30°) 11.5mph 11°C 8°C
23/03/19 09:50 EGHH 230950Z 03008KT 9999 FEW015 BKN019 11/08 Q1032 NNE (30°) 9.2mph 11°C 8°C
23/03/19 09:20 EGHH 230920Z 04006KT 9999 FEW015 SCT025 BKN034 11/09 Q1031 NE (40°) 6.9mph 11°C 9°C
23/03/19 08:50 EGHH 230850Z 05006KT 020V120 9999 FEW010 SCT020 BKN025 10/09 Q1031 NE (50°) 6.9mph 10°C 9°C
23/03/19 08:20 EGHH 230820Z 01005KT 330V070 6000 FEW007 SCT010 BKN023 09/09 Q1031 N (10°) 5.8mph 9°C 9°C
23/03/19 07:50 EGHH 230750Z VRB03KT 4000 BR FEW004 SCT006 BKN021 09/09 Q1031 BR N (0°) 3.5mph 9°C 9°C
23/03/19 07:20 EGHH 230720Z 00000KT 1800 BR SCT006 BKN010 08/08 Q1031 BR N (0°) 8°C 8°C
23/03/19 06:50 EGHH 230650Z 35002KT 1800 BR SCT010 BKN013 08/08 Q1030 BR N (350°) 2.3mph 8°C 8°C
23/03/19 06:20 EGHH 230620Z 31002KT 2700 BR SCT013 BKN026 08/08 Q1030 BR NW (310°) 2.3mph 8°C 8°C
22/03/19 21:50 EGHH 222150Z 27005KT 7000 FEW009 BKN032 09/08 Q1028 W (270°) 5.8mph 9°C 8°C
22/03/19 21:20 EGHH 222120Z 26005KT 8000 OVC032 09/08 Q1028 W (260°) 5.8mph 9°C 8°C
22/03/19 20:50 EGHH 222050Z 25003KT 9000 OVC031 09/08 Q1028 WSW (250°) 3.5mph 9°C 8°C
22/03/19 20:20 EGHH 222020Z 24002KT 9999 OVC030 09/07 Q1028 WSW (240°) 2.3mph 9°C 7°C
22/03/19 19:50 EGHH 221950Z 24004KT 9999 OVC029 10/08 Q1028 WSW (240°) 4.6mph 10°C 8°C
22/03/19 19:20 EGHH 221920Z 24006KT 9999 FEW013 BKN028 10/08 Q1028 WSW (240°) 6.9mph 10°C 8°C
22/03/19 18:50 EGHH 221850Z 25005KT 9999 FEW013 BKN027 10/08 Q1028 WSW (250°) 5.8mph 10°C 8°C
22/03/19 18:20 EGHH 221820Z 25007KT 9999 FEW013 BKN027 10/08 Q1028 WSW (250°) 8.1mph 10°C 8°C
22/03/19 17:50 EGHH 221750Z 24008KT 9999 FEW013 BKN027 10/08 Q1027 WSW (240°) 9.2mph 10°C 8°C
22/03/19 17:20 EGHH 221720Z 24008KT 9999 FEW013 BKN024 10/08 Q1027 WSW (240°) 9.2mph 10°C 8°C
22/03/19 16:50 EGHH 221650Z 20006KT 9999 SCT012 BKN020 10/08 Q1027 SSW (200°) 6.9mph 10°C 8°C
22/03/19 16:20 EGHH 221620Z 24007KT 9999 BKN012 10/08 Q1027 WSW (240°) 8.1mph 10°C 8°C
22/03/19 15:50 EGHH 221550Z 24008KT 9999 BKN014 10/08 Q1027 WSW (240°) 9.2mph 10°C 8°C
22/03/19 15:20 EGHH 221520Z 25006KT 9999 BKN014 10/08 Q1027 WSW (250°) 6.9mph 10°C 8°C
22/03/19 14:20 EGHH 221420Z 18008KT 9999 SCT010 BKN017 10/08 Q1028 S (180°) 9.2mph 10°C 8°C
22/03/19 13:50 EGHH 221350Z 19007KT 9999 SCT010 BKN016 10/08 Q1028 S (190°) 8.1mph 10°C 8°C
22/03/19 13:20 EGHH 221320Z 19008KT 9999 FEW007 BKN009 10/08 Q1028 S (190°) 9.2mph 10°C 8°C
22/03/19 12:20 EGHH 221220Z 19006KT 9999 BKN010 10/08 Q1028 S (190°) 6.9mph 10°C 8°C
22/03/19 11:50 EGHH 221150Z 20007KT 9999 BKN010 10/08 Q1028 SSW (200°) 8.1mph 10°C 8°C
22/03/19 11:20 EGHH 221120Z 17007KT 9999 BKN009 10/08 Q1028 S (170°) 8.1mph 10°C 8°C
22/03/19 10:50 EGHH 221050Z 18007KT 9999 BKN015 10/07 Q1028 S (180°) 8.1mph 10°C 7°C
22/03/19 10:20 EGHH 221020Z 24004KT 9999 BKN015 10/07 Q1029 WSW (240°) 4.6mph 10°C 7°C
22/03/19 09:50 EGHH 220950Z 23003KT 9999 BKN015 10/07 Q1029 SW (230°) 3.5mph 10°C 7°C
22/03/19 09:20 EGHH 220920Z 24002KT 9999 BKN015 10/07 Q1029 WSW (240°) 2.3mph 10°C 7°C
22/03/19 08:50 EGHH 220850Z 26002KT 9999 BKN013 10/07 Q1029 W (260°) 2.3mph 10°C 7°C
22/03/19 08:20 EGHH 220820Z 26003KT 9999 BKN013 09/07 Q1029 W (260°) 3.5mph 9°C 7°C
22/03/19 07:50 EGHH 220750Z 25005KT 9999 BKN013 09/07 Q1029 WSW (250°) 5.8mph 9°C 7°C
22/03/19 07:20 EGHH 220720Z 23004KT 9999 BKN013 09/07 Q1029 SW (230°) 4.6mph 9°C 7°C
22/03/19 06:50 EGHH 220650Z 21005KT 9999 BKN012 09/07 Q1029 SSW (210°) 5.8mph 9°C 7°C
22/03/19 06:20 EGHH 220620Z 21005KT 9999 BKN012 09/07 Q1029 SSW (210°) 5.8mph 9°C 7°C
21/03/19 21:20 EGHH 212120Z 15005KT 9999 BKN020 10/09 Q1032 SSE (150°) 5.8mph 10°C 9°C
21/03/19 20:50 EGHH 212050Z 15003KT 9999 BKN020 11/09 Q1032 SSE (150°) 3.5mph 11°C 9°C
21/03/19 20:20 EGHH 212020Z 17003KT 9999 BKN020 11/09 Q1032 S (170°) 3.5mph 11°C 9°C
21/03/19 19:50 EGHH 211950Z 15003KT 9999 BKN019 11/09 Q1032 SSE (150°) 3.5mph 11°C 9°C
21/03/19 19:20 EGHH 211920Z 14004KT 9999 BKN018 11/09 Q1032 SE (140°) 4.6mph 11°C 9°C
21/03/19 18:50 EGHH 211850Z 16003KT 9999 BKN019 11/09 Q1032 SSE (160°) 3.5mph 11°C 9°C
21/03/19 18:20 EGHH 211820Z 17002KT 9999 FEW018 BKN021 12/09 Q1032 S (170°) 2.3mph 12°C 9°C
21/03/19 17:50 EGHH 211750Z 22003KT 9999 BKN018 12/09 Q1032 SW (220°) 3.5mph 12°C 9°C
21/03/19 17:20 EGHH 211720Z 18003KT 9999 BKN020 12/10 Q1032 S (180°) 3.5mph 12°C 10°C
21/03/19 16:50 EGHH 211650Z 22004KT 9999 BKN018 12/09 Q1032 SW (220°) 4.6mph 12°C 9°C
21/03/19 16:20 EGHH 211620Z VRB03KT 9999 BKN019 13/09 Q1032 N (0°) 3.5mph 13°C 9°C
21/03/19 15:50 EGHH 211550Z 33003KT 9999 BKN019 13/09 Q1032 NNW (330°) 3.5mph 13°C 9°C
21/03/19 15:20 EGHH 211520Z VRB02KT 9999 BKN019 13/09 Q1032 N (0°) 2.3mph 13°C 9°C
21/03/19 14:50 EGHH 211450Z 18004KT 130V200 9999 BKN019 13/10 Q1032 S (180°) 4.6mph 13°C 10°C
21/03/19 14:20 EGHH 211420Z VRB03KT 9999 FEW018 BKN021 13/09 Q1033 N (0°) 3.5mph 13°C 9°C
21/03/19 13:50 EGHH 211350Z 33004KT 250V020 9999 SCT018 BKN021 13/09 Q1033 NNW (330°) 4.6mph 13°C 9°C
21/03/19 13:20 EGHH 211320Z 33005KT 250V350 9999 BKN018 13/09 Q1033 NNW (330°) 5.8mph 13°C 9°C
21/03/19 12:50 EGHH 211250Z VRB02KT 9999 BKN018 13/09 Q1034 N (0°) 2.3mph 13°C 9°C
21/03/19 12:20 EGHH 211220Z VRB02KT 9999 BKN017 13/09 Q1034 N (0°) 2.3mph 13°C 9°C
21/03/19 11:50 EGHH 211150Z VRB02KT 9999 BKN016 12/09 Q1034 N (0°) 2.3mph 12°C 9°C
21/03/19 11:20 EGHH 211120Z 29005KT 240V330 9999 BKN016 12/09 Q1034 WNW (290°) 5.8mph 12°C 9°C
21/03/19 10:50 EGHH 211050Z 28003KT 9999 BKN016 12/09 Q1034 W (280°) 3.5mph 12°C 9°C
21/03/19 10:20 EGHH 211020Z 28004KT 9999 FEW010 BKN016 12/08 Q1034 W (280°) 4.6mph 12°C 8°C
21/03/19 09:50 EGHH 210950Z 27005KT 9999 FEW010 BKN018 12/08 Q1034 W (270°) 5.8mph 12°C 8°C
21/03/19 09:20 EGHH 210920Z 27005KT 9999 FEW010 BKN016 11/09 Q1034 W (270°) 5.8mph 11°C 9°C
21/03/19 08:50 EGHH 210850Z 29006KT 9999 FEW010 BKN015 11/09 Q1034 WNW (290°) 6.9mph 11°C 9°C
21/03/19 08:20 EGHH 210820Z 27005KT 7000 FEW004 BKN015 10/09 Q1034 W (270°) 5.8mph 10°C 9°C
21/03/19 07:50 EGHH 210750Z 26004KT 7000 FEW004 BKN014 10/09 Q1034 W (260°) 4.6mph 10°C 9°C
21/03/19 07:20 EGHH 210720Z 28003KT 4500 BR FEW007 BKN013 10/09 Q1034 BR W (280°) 3.5mph 10°C 9°C
21/03/19 06:50 EGHH 210650Z 27002KT 4500 BR FEW006 BKN012 09/09 Q1034 BR W (270°) 2.3mph 9°C 9°C
21/03/19 06:20 EGHH 210620Z 28003KT 4500 BR SCT005 BKN014 09/09 Q1034 BR W (280°) 3.5mph 9°C 9°C
20/03/19 21:20 EGHH 202120Z 25004KT 9999 SCT007 BKN021 09/08 Q1034 WSW (250°) 4.6mph 9°C 8°C
20/03/19 20:50 EGHH 202050Z 27004KT 9999 SCT007 BKN024 09/08 Q1034 W (270°) 4.6mph 9°C 8°C
20/03/19 20:20 EGHH 202020Z 26004KT 9999 SCT007 BKN022 10/08 Q1034 W (260°) 4.6mph 10°C 8°C
20/03/19 19:50 EGHH 201950Z 25005KT 9999 SCT007 BKN010 10/08 Q1033 WSW (250°) 5.8mph 10°C 8°C
20/03/19 19:20 EGHH 201920Z 25005KT 9999 BKN010 10/08 Q1033 WSW (250°) 5.8mph 10°C 8°C
20/03/19 18:50 EGHH 201850Z 24004KT 9999 BKN011 10/08 Q1033 WSW (240°) 4.6mph 10°C 8°C
20/03/19 18:20 EGHH 201820Z 23005KT 9999 BKN011 10/08 Q1033 SW (230°) 5.8mph 10°C 8°C
20/03/19 17:50 EGHH 201750Z 24005KT 9999 BKN011 10/08 Q1033 WSW (240°) 5.8mph 10°C 8°C
20/03/19 17:20 EGHH 201720Z 23007KT 9999 BKN009 10/07 Q1033 SW (230°) 8.1mph 10°C 7°C
20/03/19 16:50 EGHH 201650Z 23008KT 9999 BKN009 10/08 Q1033 SW (230°) 9.2mph 10°C 8°C
20/03/19 16:20 EGHH 201620Z 24006KT 9999 BKN010 11/08 Q1032 WSW (240°) 6.9mph 11°C 8°C
20/03/19 15:50 EGHH 201550Z 23007KT 9999 BKN012 11/08 Q1032 SW (230°) 8.1mph 11°C 8°C
20/03/19 15:20 EGHH 201520Z 24007KT 9999 OVC013 11/09 Q1033 WSW (240°) 8.1mph 11°C 9°C
20/03/19 14:20 EGHH 201420Z 23008KT 9999 BKN012 12/08 Q1032 SW (230°) 9.2mph 12°C 8°C
20/03/19 13:50 EGHH 201350Z 24011KT 9999 BKN016 12/09 Q1033 WSW (240°) 12.7mph 12°C 9°C
20/03/19 13:20 EGHH 201320Z 23008KT 9999 BKN016 13/09 Q1033 SW (230°) 9.2mph 13°C 9°C
20/03/19 12:50 EGHH 201250Z 23008KT 9999 BKN016 12/09 Q1033 SW (230°) 9.2mph 12°C 9°C
20/03/19 12:20 EGHH 201220Z 24007KT 9999 BKN016 12/09 Q1033 WSW (240°) 8.1mph 12°C 9°C
20/03/19 11:50 EGHH 201150Z 23008KT 9999 BKN016 12/09 Q1033 SW (230°) 9.2mph 12°C 9°C
20/03/19 11:20 EGHH 201120Z 27007KT 9999 BKN015 12/09 Q1033 W (270°) 8.1mph 12°C 9°C
20/03/19 10:50 EGHH 201050Z 26006KT 9999 FEW011 BKN014 12/09 Q1033 W (260°) 6.9mph 12°C 9°C
20/03/19 10:20 EGHH 201020Z 25006KT 9999 FEW010 BKN013 11/09 Q1033 WSW (250°) 6.9mph 11°C 9°C
20/03/19 09:50 EGHH 200950Z 26005KT 9999 BKN010 11/09 Q1033 W (260°) 5.8mph 11°C 9°C
20/03/19 09:20 EGHH 200920Z 22005KT 9999 SCT007 BKN011 11/09 Q1033 SW (220°) 5.8mph 11°C 9°C
20/03/19 08:50 EGHH 200850Z 23006KT 9999 SCT007 BKN016 11/10 Q1033 SW (230°) 6.9mph 11°C 10°C
20/03/19 08:20 EGHH 200820Z 20002KT 9999 SCT007 BKN018 10/10 Q1033 SSW (200°) 2.3mph 10°C 10°C
20/03/19 07:50 EGHH 200750Z 07001KT 9999 5000E SCT014 BKN018 09/09 Q1032 ENE (70°) 1.2mph 9°C 9°C
20/03/19 07:20 EGHH 200720Z 15001KT 6000 SCT014 SCT017 09/09 Q1032 SSE (150°) 1.2mph 9°C 9°C
20/03/19 06:50 EGHH 200650Z 16002KT 2500 BR FEW002 BKN014 08/08 Q1032 BR SSE (160°) 2.3mph 8°C 8°C
20/03/19 05:50 EGHH 200550Z 29003KT 0600 FG OVC002 08/08 Q1031 FG WNW (290°) 3.5mph 8°C 8°C
19/03/19 20:50 EGHH 192050Z 28007KT CAVOK 09/08 Q1030 W (280°) 8.1mph 9°C 8°C
19/03/19 20:20 EGHH 192020Z 24007KT 9999 FEW035 09/08 Q1030 WSW (240°) 8.1mph 9°C 8°C
19/03/19 19:50 EGHH 191950Z 24005KT 9999 FEW036 10/07 Q1030 WSW (240°) 5.8mph 10°C 7°C
19/03/19 19:20 EGHH 191920Z 26007KT 9999 BKN033 10/07 Q1030 W (260°) 8.1mph 10°C 7°C
19/03/19 18:50 EGHH 191850Z 26004KT 9999 BKN034 09/08 Q1029 W (260°) 4.6mph 9°C 8°C
19/03/19 18:20 EGHH 191820Z 27005KT 9999 BKN039 09/07 Q1029 W (270°) 5.8mph 9°C 7°C
19/03/19 17:50 EGHH 191750Z 24006KT 9999 FEW021 BKN039 10/08 Q1029 WSW (240°) 6.9mph 10°C 8°C
19/03/19 17:20 EGHH 191720Z 23007KT 9999 SCT021 BKN038 11/08 Q1028 SW (230°) 8.1mph 11°C 8°C
19/03/19 16:50 EGHH 191650Z 22003KT 9999 SCT027 BKN039 11/09 Q1028 SW (220°) 3.5mph 11°C 9°C
19/03/19 16:20 EGHH 191620Z 24003KT 9999 FEW018 BKN024 11/09 Q1028 WSW (240°) 3.5mph 11°C 9°C
19/03/19 15:50 EGHH 191550Z 23004KT 9999 6000E BKN013 BKN028 10/09 Q1028 SW (230°) 4.6mph 10°C 9°C
19/03/19 15:20 EGHH 191520Z 23003KT 4000 -RADZ BR BKN018 BKN024 10/09 Q1028 -RA -DZ BR SW (230°) 3.5mph 10°C 9°C
19/03/19 14:50 EGHH 191450Z 24005KT 4000 -RADZ BR BKN018 SCT031 10/09 Q1028 -RA -DZ BR WSW (240°) 5.8mph 10°C 9°C
19/03/19 14:20 EGHH 191420Z 22005KT 9999 FEW015 BKN024 11/08 Q1028 SW (220°) 5.8mph 11°C 8°C
19/03/19 13:50 EGHH 191350Z 22005KT 9999 FEW015 BKN029 11/08 Q1028 SW (220°) 5.8mph 11°C 8°C
19/03/19 13:20 EGHH 191320Z 22006KT 9999 FEW014 BKN026 11/09 Q1028 SW (220°) 6.9mph 11°C 9°C
19/03/19 12:50 EGHH 191250Z 22006KT 160V260 9999 FEW014 BKN034 11/09 Q1028 SW (220°) 6.9mph 11°C 9°C
19/03/19 12:20 EGHH 191220Z 17007KT 9000 -RADZ FEW018 BKN022 11/09 Q1028 -RA -DZ S (170°) 8.1mph 11°C 9°C
19/03/19 11:50 EGHH 191150Z 21005KT 9999 FEW019 SCT035 12/08 Q1028 SSW (210°) 5.8mph 12°C 8°C
19/03/19 11:20 EGHH 191120Z 25005KT 9999 FEW016 SCT034 12/08 Q1028 WSW (250°) 5.8mph 12°C 8°C
19/03/19 10:50 EGHH 191050Z 25006KT 9999 FEW010 SCT039 12/08 Q1028 WSW (250°) 6.9mph 12°C 8°C
19/03/19 10:20 EGHH 191020Z 26005KT 9999 FEW009 SCT038 11/09 Q1028 W (260°) 5.8mph 11°C 9°C
19/03/19 09:50 EGHH 190950Z 25006KT 9999 FEW009 SCT038 11/08 Q1027 WSW (250°) 6.9mph 11°C 8°C
19/03/19 09:20 EGHH 190920Z 25006KT 9999 FEW018 BKN038 10/10 Q1027 WSW (250°) 6.9mph 10°C 10°C
19/03/19 08:50 EGHH 190850Z VRB03KT 9999 FEW038 09/09 Q1027 N (0°) 3.5mph 9°C 9°C
19/03/19 08:20 EGHH 190820Z 17003KT 9999 FEW039 07/07 Q1027 S (170°) 3.5mph 7°C 7°C
19/03/19 07:50 EGHH 190750Z 13002KT 9000 3000W FEW012 SCT038 05/04 Q1027 SE (130°) 2.3mph 5°C 4°C
19/03/19 07:20 EGHH 190720Z 00000KT 6000 0800NW R26/1300 PRFG FEW012 SCT036 02/02 Q1027 PRFG N (0°) 2°C 2°C
19/03/19 06:50 EGHH 190650Z 00000KT 3000 0700NW R26/1300 PRFG BR FEW004 SCT036 02/01 Q1026 PRFG BR N (0°) 2°C 1°C
19/03/19 06:20 EGHH 190620Z 00000KT 0250 R26/0400 FG SCT001 01/01 Q1026 FG N (0°) 1°C 1°C
19/03/19 05:50 EGHH 190550Z 00000KT 0450 R26/0450 FG SCT002 01/00 Q1026 FG N (0°) 1°C 0°C
18/03/19 21:20 EGHH 182120Z 28003KT 9999 BKN042 07/06 Q1024 W (280°) 3.5mph 7°C 6°C
18/03/19 20:50 EGHH 182050Z 27004KT 9999 BKN041 07/05 Q1024 W (270°) 4.6mph 7°C 5°C
18/03/19 20:20 EGHH 182020Z 30006KT 9999 FEW015 BKN040 08/06 Q1024 WNW (300°) 6.9mph 8°C 6°C
18/03/19 19:50 EGHH 181950Z 28007KT 9999 FEW021 BKN039 08/06 Q1024 W (280°) 8.1mph 8°C 6°C
18/03/19 19:20 EGHH 181920Z 27005KT 9999 FEW020 BKN035 08/06 Q1023 W (270°) 5.8mph 8°C 6°C
18/03/19 18:50 EGHH 181850Z 28005KT 9999 BKN026 08/06 Q1023 W (280°) 5.8mph 8°C 6°C
18/03/19 18:20 EGHH 181820Z 27003KT 9999 FEW017 BKN027 08/06 Q1023 W (270°) 3.5mph 8°C 6°C
18/03/19 17:50 EGHH 181750Z 28005KT 9999 FEW016 SCT034 08/06 Q1023 W (280°) 5.8mph 8°C 6°C
18/03/19 17:20 EGHH 181720Z 30006KT 9999 FEW016 SCT020 09/06 Q1023 WNW (300°) 6.9mph 9°C 6°C
18/03/19 16:50 EGHH 181650Z 29006KT 9999 FEW014 SCT024 09/06 Q1022 WNW (290°) 6.9mph 9°C 6°C
18/03/19 16:20 EGHH 181620Z 27006KT 240V340 9999 FEW014 SCT024 09/07 Q1022 W (270°) 6.9mph 9°C 7°C